Time;durP1;ratioP1;P1;durP2;ratioP2;P2;SDS_P1;SDS_P2;PMS_P1;PMS_P2;Temp;Humidity;BMP_temperature;BMP_pressure;BME280_temperature;BME280_humidity;BME280_pressure;Samples;Min_cycle;Max_cycle;Signal;HPM_P1;HPM_P2
2023/11/26 00:00:53;;;;;;;22.80;12.55;;;;;;;;;;4959352;28;20059;-74
2023/11/26 00:03:19;;;;;;;11.73;7.80;;;;;;;;;;4976554;28;20043;-74
2023/11/26 00:05:45;;;;;;;25.40;13.95;;;;;;;;;;4975522;28;20035;-75
2023/11/26 00:08:11;;;;;;;20.63;13.35;;;;;;;;;;4959409;28;20042;-74
2023/11/26 00:10:37;;;;;;;22.17;15.00;;;;;;;;;;4959462;28;20046;-74
2023/11/26 00:13:03;;;;;;;20.08;12.55;;;;;;;;;;4960138;28;20046;-74
2023/11/26 00:15:29;;;;;;;33.40;15.25;;;;;;;;;;4943525;28;20640;-74
2023/11/26 00:17:56;;;;;;;15.75;12.40;;;;;;;;;;4975727;28;20054;-74
2023/11/26 00:20:22;;;;;;;28.63;14.77;;;;;;;;;;4959644;28;20130;-74
2023/11/26 00:22:48;;;;;;;20.10;11.52;;;;;;;;;;4940872;28;20199;-73
2023/11/26 00:25:14;;;;;;;27.10;16.25;;;;;;;;;;4960956;28;20045;-74
2023/11/26 00:27:40;;;;;;;37.47;18.42;;;;;;;;;;4956603;28;20042;-73
2023/11/26 00:30:06;;;;;;;29.95;16.67;;;;;;;;;;4972886;28;20077;-74
2023/11/26 00:32:33;;;;;;;36.20;19.67;;;;;;;;;;4972468;28;20066;-74
2023/11/26 00:34:59;;;;;;;36.28;18.17;;;;;;;;;;4956617;28;20428;-73
2023/11/26 00:37:25;;;;;;;36.92;17.40;;;;;;;;;;4973574;28;20419;-74
2023/11/26 00:39:51;;;;;;;36.08;17.23;;;;;;;;;;4955835;28;20047;-74
2023/11/26 00:42:17;;;;;;;29.20;15.05;;;;;;;;;;4972959;28;20062;-74
2023/11/26 00:44:43;;;;;;;32.80;17.92;;;;;;;;;;4956491;28;20053;-73
2023/11/26 00:47:10;;;;;;;37.75;16.48;;;;;;;;;;4971183;28;20055;-74
2023/11/26 00:49:36;;;;;;;20.65;12.63;;;;;;;;;;4954506;28;20047;-74
2023/11/26 00:52:02;;;;;;;24.00;13.32;;;;;;;;;;4956119;28;20460;-75
2023/11/26 00:54:28;;;;;;;21.65;13.88;;;;;;;;;;4972153;28;20117;-73
2023/11/26 00:56:54;;;;;;;34.95;20.00;;;;;;;;;;4973194;28;20054;-73
2023/11/26 00:59:20;;;;;;;29.42;16.95;;;;;;;;;;4956193;28;20508;-74
2023/11/26 01:01:46;;;;;;;28.17;17.33;;;;;;;;;;4956093;28;20062;-75
2023/11/26 01:04:12;;;;;;;15.27;11.10;;;;;;;;;;4973213;28;20053;-74
2023/11/26 01:06:38;;;;;;;20.23;12.80;;;;;;;;;;4956243;28;20039;-74
2023/11/26 01:09:05;;;;;;;22.48;14.38;;;;;;;;;;4972153;28;20509;-74
2023/11/26 01:11:31;;;;;;;31.75;17.38;;;;;;;;;;4939669;28;20464;-73
2023/11/26 01:13:57;;;;;;;13.10;8.48;;;;;;;;;;4939823;28;20047;-75
2023/11/26 01:16:23;;;;;;;13.07;9.35;;;;;;;;;;4955800;28;20114;-74
2023/11/26 01:18:50;;;;;;;10.93;9.77;;;;;;;;;;4955794;28;20050;-74
2023/11/26 01:21:16;;;;;;;23.20;14.73;;;;;;;;;;4955476;28;20166;-73
2023/11/26 01:23:42;;;;;;;15.30;9.70;;;;;;;;;;4955645;28;20064;-74
2023/11/26 01:26:10;;;;;;;8.90;7.50;;;;;;;;;;4955682;28;20074;-73
2023/11/26 01:28:36;;;;;;;9.77;7.50;;;;;;;;;;4955670;28;20559;-74
2023/11/26 01:31:03;;;;;;;28.30;14.70;;;;;;;;;;4955955;28;20198;-74
2023/11/26 01:33:29;;;;;;;23.75;14.15;;;;;;;;;;4972742;28;20501;-74
2023/11/26 01:35:55;;;;;;;27.67;15.52;;;;;;;;;;4973071;28;20504;-75
2023/11/26 01:38:21;;;;;;;23.63;12.70;;;;;;;;;;4923638;28;20116;-73
2023/11/26 01:40:47;;;;;;;14.35;10.93;;;;;;;;;;4939896;28;20046;-75
2023/11/26 01:43:14;;;;;;;34.92;15.95;;;;;;;;;;4972745;28;20054;-75
2023/11/26 01:45:40;;;;;;;13.57;9.82;;;;;;;;;;4971834;28;20049;-74
2023/11/26 01:48:06;;;;;;;28.92;17.08;;;;;;;;;;4939489;28;20045;-74
2023/11/26 01:50:33;;;;;;;16.95;11.00;;;;;;;;;;4939988;28;20145;-75
2023/11/26 01:53:00;;;;;;;17.77;12.63;;;;;;;;;;4955738;28;20103;-73
2023/11/26 01:55:26;;;;;;;21.25;13.07;;;;;;;;;;4954866;28;20189;-74
2023/11/26 01:57:52;;;;;;;26.65;15.95;;;;;;;;;;4923071;28;20141;-74
2023/11/26 02:00:19;;;;;;;19.30;13.30;;;;;;;;;;4939183;28;20042;-74
2023/11/26 02:02:47;;;;;;;25.67;16.80;;;;;;;;;;4955540;28;20148;-74
2023/11/26 02:05:13;;;;;;;17.73;10.88;;;;;;;;;;4939883;28;20035;-73
2023/11/26 02:07:39;;;;;;;16.77;10.75;;;;;;;;;;4955120;28;20042;-74
2023/11/26 02:10:06;;;;;;;7.93;7.18;;;;;;;;;;4972050;28;20034;-74
2023/11/26 02:12:33;;;;;;;29.50;16.02;;;;;;;;;;4978643;28;20042;-74
2023/11/26 02:14:59;;;;;;;16.33;10.77;;;;;;;;;;4956049;28;20109;-74
2023/11/26 02:17:26;;;;;;;29.05;13.88;;;;;;;;;;4983004;28;20055;-74
2023/11/26 02:19:52;;;;;;;30.85;15.85;;;;;;;;;;4952012;28;20039;-74
2023/11/26 02:22:19;;;;;;;30.88;15.23;;;;;;;;;;4964652;28;20051;-75
2023/11/26 02:24:46;;;;;;;23.63;13.95;;;;;;;;;;4955530;28;20043;-74
2023/11/26 02:27:12;;;;;;;25.23;14.80;;;;;;;;;;4955103;28;20424;-74
2023/11/26 02:29:40;;;;;;;28.15;13.57;;;;;;;;;;4972029;28;20043;-73
2023/11/26 02:32:07;;;;;;;28.73;14.75;;;;;;;;;;4955173;28;20050;-74
2023/11/26 02:34:34;;;;;;;33.35;17.02;;;;;;;;;;4954878;28;20034;-74
2023/11/26 02:37:01;;;;;;;33.83;17.88;;;;;;;;;;4955057;28;20057;-74
2023/11/26 02:39:29;;;;;;;37.85;19.15;;;;;;;;;;4972310;28;20051;-74
2023/11/26 02:41:56;;;;;;;28.73;15.27;;;;;;;;;;4954659;28;20070;-74
2023/11/26 02:44:22;;;;;;;25.08;12.43;;;;;;;;;;4953987;28;20137;-74
2023/11/26 02:46:48;;;;;;;15.43;10.18;;;;;;;;;;4971034;28;20134;-73
2023/11/26 02:49:14;;;;;;;29.33;14.20;;;;;;;;;;4954210;28;20521;-74
2023/11/26 02:51:40;;;;;;;35.58;19.70;;;;;;;;;;4954006;28;20187;-74
2023/11/26 02:54:08;;;;;;;27.80;14.98;;;;;;;;;;4954094;28;20464;-74
2023/11/26 02:56:34;;;;;;;29.77;15.45;;;;;;;;;;4938085;28;20137;-74
2023/11/26 02:59:00;;;;;;;25.05;14.77;;;;;;;;;;4938917;28;20055;-73
2023/11/26 03:01:29;;;;;;;35.50;18.33;;;;;;;;;;4938098;28;20046;-73
2023/11/26 03:03:56;;;;;;;17.70;12.02;;;;;;;;;;4953739;28;20117;-74
2023/11/26 03:06:26;;;;;;;20.63;13.52;;;;;;;;;;4954157;28;20039;-74
2023/11/26 03:09:00;;;;;;;20.55;13.65;;;;;;;;;;4954148;28;20124;-74
2023/11/26 03:14:12;;;;;;;26.77;13.88;;;;;;;;;;4956519;28;20057;-73
2023/11/26 03:16:39;;;;;;;33.28;17.33;;;;;;;;;;4953628;28;20038;-74
2023/11/26 03:19:05;;;;;;;42.63;19.58;;;;;;;;;;4971121;28;20057;-73
2023/11/26 03:21:31;;;;;;;43.45;24.45;;;;;;;;;;4954092;28;20055;-73
2023/11/26 03:23:57;;;;;;;41.47;18.50;;;;;;;;;;4953164;28;20066;-73
2023/11/26 03:26:25;;;;;;;42.22;21.80;;;;;;;;;;4937851;28;20529;-73
2023/11/26 03:28:52;;;;;;;39.95;20.50;;;;;;;;;;4935411;28;20046;-73
2023/11/26 03:31:18;;;;;;;32.28;16.98;;;;;;;;;;4971196;28;20050;-74
2023/11/26 03:33:44;;;;;;;26.63;15.65;;;;;;;;;;4970840;28;20069;-75
2023/11/26 03:36:11;;;;;;;40.80;20.65;;;;;;;;;;4954066;28;20660;-75
2023/11/26 03:38:37;;;;;;;46.05;23.50;;;;;;;;;;4970757;28;20058;-75
2023/11/26 03:41:05;;;;;;;29.48;16.38;;;;;;;;;;4938963;28;20070;-73
2023/11/26 03:43:32;;;;;;;29.88;16.15;;;;;;;;;;4937634;28;20264;-73
2023/11/26 03:45:58;;;;;;;34.92;16.83;;;;;;;;;;4969704;28;20050;-75
2023/11/26 03:48:24;;;;;;;33.75;18.77;;;;;;;;;;4969805;28;20065;-75
2023/11/26 03:50:50;;;;;;;33.17;17.63;;;;;;;;;;4971234;28;20050;-73
2023/11/26 03:53:16;;;;;;;31.58;15.70;;;;;;;;;;4970561;28;20053;-74
2023/11/26 03:55:42;;;;;;;20.77;14.50;;;;;;;;;;4954527;28;20126;-74
2023/11/26 03:58:10;;;;;;;28.50;15.82;;;;;;;;;;4956528;28;20054;-74
2023/11/26 04:00:37;;;;;;;25.40;12.88;;;;;;;;;;4974221;28;20134;-74
2023/11/26 04:03:04;;;;;;;37.65;19.38;;;;;;;;;;4958287;28;20046;-74
2023/11/26 04:05:31;;;;;;;37.97;22.45;;;;;;;;;;4973957;28;20078;-73
2023/11/26 04:07:56;;;;;;;29.98;17.60;;;;;;;;;;4974481;28;20055;-73
2023/11/26 04:10:23;;;;;;;29.27;16.40;;;;;;;;;;4974367;28;20093;-73
2023/11/26 04:12:49;;;;;;;19.38;11.57;;;;;;;;;;4957328;28;20464;-73
2023/11/26 04:15:22;;;;;;;22.17;12.48;;;;;;;;;;4972853;28;20126;-73
2023/11/26 04:17:49;;;;;;;34.22;18.90;;;;;;;;;;4940845;28;20054;-73
2023/11/26 04:20:16;;;;;;;24.33;11.10;;;;;;;;;;4974416;28;20113;-72
2023/11/26 04:22:42;;;;;;;28.20;15.35;;;;;;;;;;4958739;28;20835;-73
2023/11/26 04:25:09;;;;;;;29.83;14.90;;;;;;;;;;4975912;28;20114;-74
2023/11/26 04:27:36;;;;;;;23.27;13.82;;;;;;;;;;4974910;28;20050;-75
2023/11/26 04:30:03;;;;;;;35.67;16.08;;;;;;;;;;4974848;28;20039;-74
2023/11/26 04:32:31;;;;;;;28.73;15.50;;;;;;;;;;4972456;28;20051;-74
2023/11/26 04:34:57;;;;;;;22.98;13.07;;;;;;;;;;4973775;28;20046;-74
2023/11/26 04:37:24;;;;;;;29.70;14.80;;;;;;;;;;4973608;28;20054;-75
2023/11/26 04:39:50;;;;;;;22.02;13.48;;;;;;;;;;4973666;28;20179;-74
2023/11/26 04:42:16;;;;;;;29.92;15.38;;;;;;;;;;4956588;28;20078;-74
2023/11/26 04:44:42;;;;;;;24.55;14.60;;;;;;;;;;4972144;28;20050;-74
2023/11/26 04:47:09;;;;;;;31.15;18.40;;;;;;;;;;4973921;28;20442;-75
2023/11/26 04:49:35;;;;;;;27.45;13.88;;;;;;;;;;4956098;28;20042;-75
2023/11/26 04:52:01;;;;;;;37.00;17.70;;;;;;;;;;4956215;28;20046;-73
2023/11/26 04:54:27;;;;;;;28.40;14.95;;;;;;;;;;4973159;28;20457;-76
2023/11/26 04:56:53;;;;;;;25.70;15.82;;;;;;;;;;4972826;28;20074;-76
2023/11/26 04:59:19;;;;;;;27.08;14.90;;;;;;;;;;4973898;28;20049;-76
2023/11/26 05:01:48;;;;;;;26.98;14.50;;;;;;;;;;4972701;28;20051;-74
2023/11/26 05:04:15;;;;;;;33.92;17.90;;;;;;;;;;4923759;28;20101;-74
2023/11/26 05:06:44;;;;;;;26.42;15.20;;;;;;;;;;4921461;29;20473;-74
2023/11/26 05:09:13;;;;;;;27.60;15.05;;;;;;;;;;4920615;29;20054;-73
2023/11/26 05:11:43;;;;;;;23.95;12.77;;;;;;;;;;4921010;29;20487;-75
2023/11/26 05:14:10;;;;;;;25.63;14.55;;;;;;;;;;4921102;29;20138;-75
2023/11/26 05:16:38;;;;;;;35.45;20.13;;;;;;;;;;4920412;29;20391;-76
2023/11/26 05:19:05;;;;;;;27.23;14.57;;;;;;;;;;4945456;28;20414;-77
2023/11/26 05:21:31;;;;;;;33.38;15.20;;;;;;;;;;4973079;28;20121;-74
2023/11/26 05:23:57;;;;;;;28.88;14.43;;;;;;;;;;4939818;28;20050;-75
2023/11/26 05:26:23;;;;;;;46.55;22.42;;;;;;;;;;4971213;28;20046;-75
2023/11/26 05:28:50;;;;;;;34.35;16.48;;;;;;;;;;4939802;28;20137;-73
2023/11/26 05:31:16;;;;;;;35.92;19.80;;;;;;;;;;4974066;28;20129;-75
2023/11/26 05:33:42;;;;;;;29.55;15.15;;;;;;;;;;4969176;28;20050;-73
2023/11/26 05:36:08;;;;;;;45.40;25.45;;;;;;;;;;4967102;28;20039;-73
2023/11/26 05:38:34;;;;;;;31.50;18.00;;;;;;;;;;4962591;28;20558;-73
2023/11/26 05:41:00;;;;;;;37.08;15.63;;;;;;;;;;4963100;28;20547;-72
2023/11/26 05:43:27;;;;;;;27.52;15.32;;;;;;;;;;4944848;28;20133;-74
2023/11/26 05:45:53;;;;;;;37.45;17.23;;;;;;;;;;4937680;28;20042;-73
2023/11/26 05:48:19;;;;;;;30.98;15.93;;;;;;;;;;4962505;28;20510;-75
2023/11/26 05:50:45;;;;;;;39.20;20.33;;;;;;;;;;4971456;28;20425;-73
2023/11/26 05:53:12;;;;;;;41.05;21.00;;;;;;;;;;4953810;28;20120;-71
2023/11/26 05:55:38;;;;;;;27.70;14.85;;;;;;;;;;4949405;29;20110;-74
2023/11/26 05:58:04;;;;;;;41.50;18.10;;;;;;;;;;4935339;29;20449;-72
2023/11/26 06:00:30;;;;;;;30.45;16.35;;;;;;;;;;4944735;28;20043;-72
2023/11/26 06:02:58;;;;;;;29.35;15.63;;;;;;;;;;4954865;28;20054;-75
2023/11/26 06:05:24;;;;;;;31.20;16.88;;;;;;;;;;4937789;29;20429;-74
2023/11/26 06:07:50;;;;;;;27.45;15.80;;;;;;;;;;4935625;28;20043;-73
2023/11/26 06:10:16;;;;;;;36.90;18.02;;;;;;;;;;4954647;28;20047;-73
2023/11/26 06:12:42;;;;;;;32.05;17.63;;;;;;;;;;4952358;28;20050;-72
2023/11/26 06:15:08;;;;;;;34.70;17.20;;;;;;;;;;4935386;29;20426;-72
2023/11/26 06:17:35;;;;;;;29.77;15.13;;;;;;;;;;4957175;28;20055;-72
2023/11/26 06:20:03;;;;;;;29.27;15.57;;;;;;;;;;4953846;28;20088;-72
2023/11/26 06:22:30;;;;;;;32.15;16.58;;;;;;;;;;4954058;28;20045;-71
2023/11/26 06:24:57;;;;;;;33.00;17.63;;;;;;;;;;4967418;28;20050;-74
2023/11/26 06:27:23;;;;;;;21.17;13.70;;;;;;;;;;4969697;28;20054;-73
2023/11/26 06:29:49;;;;;;;35.67;18.67;;;;;;;;;;4971092;28;20125;-69
2023/11/26 06:32:15;;;;;;;28.10;15.50;;;;;;;;;;4951328;28;20134;-72
2023/11/26 06:34:41;;;;;;;44.00;21.58;;;;;;;;;;4958571;28;20053;-72
2023/11/26 06:37:07;;;;;;;37.40;21.83;;;;;;;;;;4933083;29;20477;-70
2023/11/26 06:39:33;;;;;;;26.13;16.10;;;;;;;;;;4967211;28;20043;-72
2023/11/26 06:41:59;;;;;;;36.60;20.25;;;;;;;;;;4949125;29;20047;-74
2023/11/26 06:44:25;;;;;;;29.98;17.83;;;;;;;;;;4952308;29;20145;-77
2023/11/26 06:46:52;;;;;;;33.45;18.83;;;;;;;;;;4950986;28;20066;-73
2023/11/26 06:49:18;;;;;;;34.28;16.63;;;;;;;;;;4941340;28;20047;-74
2023/11/26 06:51:45;;;;;;;27.23;16.58;;;;;;;;;;4971337;28;20512;-74
2023/11/26 06:54:11;;;;;;;28.95;16.10;;;;;;;;;;4938154;28;20185;-73
2023/11/26 06:56:37;;;;;;;29.20;15.43;;;;;;;;;;4953956;28;20611;-73
2023/11/26 06:59:03;;;;;;;28.65;17.17;;;;;;;;;;4967980;28;20138;-77
2023/11/26 07:01:31;;;;;;;33.70;15.68;;;;;;;;;;4931851;29;20650;-72
2023/11/26 07:03:57;;;;;;;40.22;19.95;;;;;;;;;;4951880;28;20514;-74
2023/11/26 07:06:22;;;;;;;40.67;18.27;;;;;;;;;;4951853;29;20131;-74
2023/11/26 07:08:49;;;;;;;27.80;16.33;;;;;;;;;;4934691;28;20054;-75
2023/11/26 07:11:16;;;;;;;30.15;17.60;;;;;;;;;;4964989;28;20038;-74
2023/11/26 07:13:43;;;;;;;29.15;17.13;;;;;;;;;;4917780;28;20043;-74
2023/11/26 07:16:10;;;;;;;38.95;23.52;;;;;;;;;;4968747;28;20042;-72
2023/11/26 07:18:36;;;;;;;37.15;21.25;;;;;;;;;;4934296;28;20073;-74
2023/11/26 07:21:03;;;;;;;44.60;22.88;;;;;;;;;;4934574;28;20037;-74
2023/11/26 07:23:31;;;;;;;33.53;17.85;;;;;;;;;;4951079;28;20138;-74
2023/11/26 07:25:58;;;;;;;33.85;16.52;;;;;;;;;;4951373;28;20061;-75
2023/11/26 07:28:24;;;;;;;39.50;22.10;;;;;;;;;;4936099;28;20047;-74
2023/11/26 07:30:51;;;;;;;30.30;17.38;;;;;;;;;;4952340;28;20035;-73
2023/11/26 07:33:17;;;;;;;41.88;23.88;;;;;;;;;;4941241;28;20051;-74
2023/11/26 07:35:43;;;;;;;32.42;18.98;;;;;;;;;;4957558;28;20035;-74
2023/11/26 07:38:09;;;;;;;35.28;19.67;;;;;;;;;;4956765;28;20406;-72
2023/11/26 07:40:36;;;;;;;31.20;17.77;;;;;;;;;;4974752;28;20038;-74
2023/11/26 07:43:04;;;;;;;25.35;14.88;;;;;;;;;;4957480;28;20046;-74
2023/11/26 07:45:30;;;;;;;33.08;20.33;;;;;;;;;;4973464;28;20069;-73
2023/11/26 07:47:56;;;;;;;35.28;19.40;;;;;;;;;;4973838;28;20072;-74
2023/11/26 07:50:22;;;;;;;35.58;21.38;;;;;;;;;;4957625;28;20130;-74
2023/11/26 07:52:49;;;;;;;27.20;15.27;;;;;;;;;;4941268;28;20043;-74
2023/11/26 07:55:15;;;;;;;36.03;20.63;;;;;;;;;;4973699;28;20046;-74
2023/11/26 07:57:42;;;;;;;23.85;14.93;;;;;;;;;;4957494;28;20051;-73
2023/11/26 08:00:13;;;;;;;33.72;18.90;;;;;;;;;;4941433;28;20543;-75
2023/11/26 08:02:40;;;;;;;31.03;17.47;;;;;;;;;;4957269;28;20066;-73
2023/11/26 08:05:08;;;;;;;28.60;15.30;;;;;;;;;;4926038;28;20059;-74
2023/11/26 08:07:36;;;;;;;31.02;17.48;;;;;;;;;;4974394;28;20042;-74
2023/11/26 08:10:10;;;;;;;30.48;16.58;;;;;;;;;;4957488;28;20429;-74
2023/11/26 08:12:39;;;;;;;36.38;20.85;;;;;;;;;;4956969;28;20133;-74
2023/11/26 08:15:12;;;;;;;34.72;22.75;;;;;;;;;;4973086;28;20398;-74
2023/11/26 08:17:39;;;;;;;38.03;20.92;;;;;;;;;;4956882;28;20043;-74
2023/11/26 08:20:09;;;;;;;37.90;22.95;;;;;;;;;;4974520;28;20097;-74
2023/11/26 08:22:40;;;;;;;36.42;21.38;;;;;;;;;;4961506;28;20035;-74
2023/11/26 08:25:11;;;;;;;32.30;18.95;;;;;;;;;;4962701;28;20505;-74
2023/11/26 08:27:37;;;;;;;29.75;17.10;;;;;;;;;;4979037;28;20046;-73
2023/11/26 08:30:12;;;;;;;37.60;18.25;;;;;;;;;;4978918;28;20126;-73
2023/11/26 08:32:44;;;;;;;24.73;13.18;;;;;;;;;;4946822;28;20057;-74
2023/11/26 08:35:11;;;;;;;26.30;15.30;;;;;;;;;;4963132;28;20039;-73
2023/11/26 08:37:43;;;;;;;40.08;21.90;;;;;;;;;;4978912;28;20043;-75
2023/11/26 08:40:12;;;;;;;28.25;15.75;;;;;;;;;;4963320;28;20548;-73
2023/11/26 08:42:39;;;;;;;28.80;15.07;;;;;;;;;;4959458;28;20054;-75
2023/11/26 08:45:08;;;;;;;35.65;20.63;;;;;;;;;;4956406;28;20428;-73
2023/11/26 08:47:35;;;;;;;27.67;17.40;;;;;;;;;;4957007;28;20113;-77
2023/11/26 08:50:02;;;;;;;34.17;20.75;;;;;;;;;;4924812;28;20076;-74
2023/11/26 08:52:33;;;;;;;33.03;20.50;;;;;;;;;;4947857;28;20403;-73
2023/11/26 08:54:59;;;;;;;36.22;20.88;;;;;;;;;;4968508;28;20047;-75
2023/11/26 08:57:26;;;;;;;37.90;24.13;;;;;;;;;;4937627;28;20058;-73
2023/11/26 08:59:52;;;;;;;33.78;21.67;;;;;;;;;;4929443;28;20050;-73
2023/11/26 09:02:18;;;;;;;29.77;17.45;;;;;;;;;;4940291;28;20137;-76
2023/11/26 09:04:44;;;;;;;32.80;16.23;;;;;;;;;;4947877;28;20071;-75
2023/11/26 09:07:10;;;;;;;34.95;22.35;;;;;;;;;;4962146;28;20042;-74
2023/11/26 09:09:36;;;;;;;34.85;21.30;;;;;;;;;;4948509;28;20039;-75
2023/11/26 09:12:03;;;;;;;36.75;22.08;;;;;;;;;;4949704;28;20116;-74
2023/11/26 09:14:29;;;;;;;33.20;18.60;;;;;;;;;;4931495;28;20093;-75
2023/11/26 09:16:55;;;;;;;38.65;23.35;;;;;;;;;;4929253;28;20089;-75
2023/11/26 09:19:21;;;;;;;39.25;24.42;;;;;;;;;;4946806;28;20473;-73
2023/11/26 09:21:49;;;;;;;30.67;18.50;;;;;;;;;;4964602;28;20030;-73
2023/11/26 09:24:16;;;;;;;43.30;21.63;;;;;;;;;;4963816;28;20505;-72
2023/11/26 09:26:42;;;;;;;33.80;19.75;;;;;;;;;;4965032;28;20035;-72
2023/11/26 09:29:08;;;;;;;32.75;19.33;;;;;;;;;;4951837;28;20046;-77
2023/11/26 09:31:38;;;;;;;40.00;26.73;;;;;;;;;;4954978;28;20043;-76
2023/11/26 09:34:05;;;;;;;44.90;24.20;;;;;;;;;;4931324;28;20074;-76
2023/11/26 09:36:31;;;;;;;40.13;24.50;;;;;;;;;;4957903;28;20242;-73
2023/11/26 09:38:57;;;;;;;45.88;24.60;;;;;;;;;;4928753;28;20059;-77
2023/11/26 09:41:24;;;;;;;32.13;19.30;;;;;;;;;;4975296;28;20046;-74
2023/11/26 09:43:50;;;;;;;31.98;18.38;;;;;;;;;;4973201;28;20051;-74
2023/11/26 09:46:16;;;;;;;35.42;19.77;;;;;;;;;;4972758;28;20039;-74
2023/11/26 09:48:42;;;;;;;41.53;29.25;;;;;;;;;;4952011;28;20126;-75
2023/11/26 09:51:09;;;;;;;19.90;11.30;;;;;;;;;;4967021;28;20473;-74
2023/11/26 09:53:37;;;;;;;41.35;21.65;;;;;;;;;;4950309;28;20074;-74
2023/11/26 09:56:04;;;;;;;33.78;17.85;;;;;;;;;;4940092;28;20038;-74
2023/11/26 09:58:36;;;;;;;38.38;20.58;;;;;;;;;;4921162;28;20055;-73
2023/11/26 10:01:02;;;;;;;45.90;27.00;;;;;;;;;;4972750;28;20046;-75
2023/11/26 10:03:29;;;;;;;52.30;33.05;;;;;;;;;;4973185;28;20503;-74
2023/11/26 10:06:10;;;;;;;44.72;26.02;;;;;;;;;;4972365;28;20066;-74
2023/11/26 10:08:36;;;;;;;32.10;20.02;;;;;;;;;;4954094;28;20075;-75
2023/11/26 10:11:02;;;;;;;46.10;26.95;;;;;;;;;;4954467;28;20506;-74
2023/11/26 10:13:40;;;;;;;45.28;25.83;;;;;;;;;;4950513;28;20051;-73
2023/11/26 10:16:07;;;;;;;40.05;24.75;;;;;;;;;;4967803;28;20521;-74
2023/11/26 10:18:39;;;;;;;39.95;21.65;;;;;;;;;;4945660;28;20063;-74
2023/11/26 10:21:06;;;;;;;42.35;25.13;;;;;;;;;;4948138;28;20046;-73
2023/11/26 10:23:36;;;;;;;37.20;21.23;;;;;;;;;;4937940;28;20050;-73
2023/11/26 10:26:04;;;;;;;39.53;21.48;;;;;;;;;;4950809;29;20502;-73
2023/11/26 10:28:30;;;;;;;35.05;19.05;;;;;;;;;;4952340;28;20054;-73
2023/11/26 10:31:04;;;;;;;36.33;19.40;;;;;;;;;;4940687;28;20099;-73
2023/11/26 10:33:31;;;;;;;39.42;21.73;;;;;;;;;;4945432;28;20043;-73
2023/11/26 10:35:57;;;;;;;30.38;18.65;;;;;;;;;;4959275;28;20042;-74
2023/11/26 10:38:34;;;;;;;39.85;20.88;;;;;;;;;;4950149;28;20063;-72
2023/11/26 10:41:00;;;;;;;30.95;17.42;;;;;;;;;;4934798;29;20039;-72
2023/11/26 10:43:26;;;;;;;33.20;18.92;;;;;;;;;;4949777;28;20039;-71
2023/11/26 10:45:52;;;;;;;42.42;23.90;;;;;;;;;;4964795;28;20039;-72
2023/11/26 10:48:18;;;;;;;36.22;18.08;;;;;;;;;;4934165;28;20062;-71
2023/11/26 10:50:56;;;;;;;42.13;22.50;;;;;;;;;;4947222;28;20038;-72
2023/11/26 10:53:42;;;;;;;41.88;23.35;;;;;;;;;;4970620;28;20050;-73
2023/11/26 10:56:08;;;;;;;33.22;20.40;;;;;;;;;;4969452;28;20256;-72
2023/11/26 10:58:46;;;;;;;41.78;22.30;;;;;;;;;;4970563;28;20073;-72
2023/11/26 11:01:13;;;;;;;43.75;23.35;;;;;;;;;;4952872;28;20046;-72
2023/11/26 11:03:39;;;;;;;45.10;21.77;;;;;;;;;;4970050;28;20050;-73
2023/11/26 11:06:06;;;;;;;41.88;24.27;;;;;;;;;;4968947;28;20038;-72
2023/11/26 11:08:32;;;;;;;51.28;30.98;;;;;;;;;;4965265;28;20134;-73
2023/11/26 11:11:03;;;;;;;44.75;25.10;;;;;;;;;;4965894;28;20050;-71
2023/11/26 11:13:29;;;;;;;38.80;23.30;;;;;;;;;;4970752;28;20051;-72
2023/11/26 11:15:55;;;;;;;44.78;23.38;;;;;;;;;;4952721;28;20528;-73
2023/11/26 11:18:35;;;;;;;36.00;18.52;;;;;;;;;;4971332;28;20090;-72
2023/11/26 11:21:05;;;;;;;35.75;17.77;;;;;;;;;;4970048;28;20038;-73
2023/11/26 11:23:36;;;;;;;39.53;21.65;;;;;;;;;;4953136;28;20055;-71
2023/11/26 11:26:02;;;;;;;30.77;18.00;;;;;;;;;;4936884;28;20042;-73
2023/11/26 11:28:39;;;;;;;31.25;19.13;;;;;;;;;;4968675;28;20081;-72
2023/11/26 11:31:06;;;;;;;51.90;33.00;;;;;;;;;;4953121;28;20108;-72
2023/11/26 11:33:32;;;;;;;39.28;24.30;;;;;;;;;;4952921;28;20049;-71
2023/11/26 11:35:58;;;;;;;37.60;24.48;;;;;;;;;;4952821;28;20035;-73
2023/11/26 11:38:26;;;;;;;34.33;21.02;;;;;;;;;;4968913;28;20117;-71
2023/11/26 11:41:11;;;;;;;43.50;26.58;;;;;;;;;;4953089;28;20030;-71
2023/11/26 11:43:38;;;;;;;51.47;32.03;;;;;;;;;;4970775;28;20499;-72
2023/11/26 11:46:23;;;;;;;43.08;23.52;;;;;;;;;;4970052;28;20774;-73
2023/11/26 11:48:59;;;;;;;48.17;26.77;;;;;;;;;;4970747;28;20057;-72
2023/11/26 11:51:31;;;;;;;35.63;21.15;;;;;;;;;;4966542;28;20046;-72
2023/11/26 11:54:17;;;;;;;32.22;18.42;;;;;;;;;;4970019;28;20120;-72
2023/11/26 11:56:43;;;;;;;51.58;28.02;;;;;;;;;;4927073;28;20034;-71
2023/11/26 11:59:09;;;;;;;41.65;24.10;;;;;;;;;;4966067;28;20097;-72
2023/11/26 12:01:36;;;;;;;42.65;25.02;;;;;;;;;;4967866;28;20043;-72
2023/11/26 12:04:02;;;;;;;47.00;26.55;;;;;;;;;;4970385;28;20054;-71
2023/11/26 12:06:31;;;;;;;28.52;17.17;;;;;;;;;;4952093;28;20175;-72
2023/11/26 12:08:58;;;;;;;39.42;23.65;;;;;;;;;;4970321;28;20057;-72
2023/11/26 12:11:24;;;;;;;49.38;27.65;;;;;;;;;;4969896;28;20452;-74
2023/11/26 12:13:50;;;;;;;19.77;12.75;;;;;;;;;;4971488;28;20039;-72
2023/11/26 12:16:17;;;;;;;40.15;21.58;;;;;;;;;;4943985;28;20750;-73
2023/11/26 12:18:43;;;;;;;45.83;24.02;;;;;;;;;;4974738;23;20153;-73
2023/11/26 12:21:09;;;;;;;44.63;20.10;;;;;;;;;;4969792;28;20508;-73
2023/11/26 12:23:36;;;;;;;42.15;23.27;;;;;;;;;;4969951;28;20042;-72
2023/11/26 12:26:03;;;;;;;40.83;21.98;;;;;;;;;;4938732;28;20035;-72
2023/11/26 12:28:32;;;;;;;49.53;29.08;;;;;;;;;;4971765;28;20035;-73
2023/11/26 12:31:01;;;;;;;46.60;26.98;;;;;;;;;;4972830;28;20042;-74
2023/11/26 12:33:27;;;;;;;42.50;24.17;;;;;;;;;;4955902;28;20038;-75
2023/11/26 12:35:53;;;;;;;32.75;21.40;;;;;;;;;;4918304;28;20513;-73
2023/11/26 12:38:25;;;;;;;30.55;19.00;;;;;;;;;;4955746;28;20078;-74
2023/11/26 12:40:52;;;;;;;42.20;24.00;;;;;;;;;;4951869;28;20043;-74
2023/11/26 12:43:18;;;;;;;49.72;24.55;;;;;;;;;;4940280;28;20138;-74
2023/11/26 12:45:45;;;;;;;40.80;24.40;;;;;;;;;;4940133;28;20034;-73
2023/11/26 12:48:11;;;;;;;30.60;19.35;;;;;;;;;;4956423;28;20086;-72
2023/11/26 12:50:41;;;;;;;38.33;22.38;;;;;;;;;;4973298;28;20062;-73
2023/11/26 12:53:11;;;;;;;48.75;30.92;;;;;;;;;;4939597;28;20125;-72
2023/11/26 12:55:46;;;;;;;40.78;23.05;;;;;;;;;;4972631;28;20520;-73
2023/11/26 12:58:19;;;;;;;48.42;30.25;;;;;;;;;;4954982;28;20074;-72
2023/11/26 13:00:45;;;;;;;50.38;30.45;;;;;;;;;;4970494;28;20062;-72
2023/11/26 13:03:14;;;;;;;41.65;21.95;;;;;;;;;;4971769;28;20050;-71
2023/11/26 13:05:40;;;;;;;36.03;18.02;;;;;;;;;;4972543;28;20043;-73
2023/11/26 13:08:16;;;;;;;47.35;27.70;;;;;;;;;;4971381;28;20053;-73
2023/11/26 13:10:52;;;;;;;35.63;21.20;;;;;;;;;;4972528;28;20047;-72
2023/11/26 13:13:26;;;;;;;31.70;20.55;;;;;;;;;;4972847;28;20150;-73
2023/11/26 13:15:53;;;;;;;38.58;21.85;;;;;;;;;;4960857;28;20117;-72
2023/11/26 13:18:19;;;;;;;30.40;18.38;;;;;;;;;;4971925;28;20424;-73
2023/11/26 13:20:48;;;;;;;41.90;27.13;;;;;;;;;;4923386;28;20189;-73
2023/11/26 13:23:14;;;;;;;34.08;20.00;;;;;;;;;;4923705;28;20054;-73
2023/11/26 13:25:40;;;;;;;34.30;22.85;;;;;;;;;;4955051;28;20575;-72
2023/11/26 13:28:09;;;;;;;42.17;24.90;;;;;;;;;;4961308;28;20134;-72
2023/11/26 13:30:37;;;;;;;37.15;21.05;;;;;;;;;;4971536;28;20109;-71
2023/11/26 13:33:03;;;;;;;34.10;20.15;;;;;;;;;;4954209;28;20049;-73
2023/11/26 13:35:30;;;;;;;34.58;22.63;;;;;;;;;;4972207;28;20047;-71
2023/11/26 13:37:56;;;;;;;36.08;21.80;;;;;;;;;;4971990;28;20070;-72
2023/11/26 13:40:23;;;;;;;34.55;21.13;;;;;;;;;;4972212;28;20062;-73
2023/11/26 13:42:49;;;;;;;41.67;27.20;;;;;;;;;;4971852;28;20045;-72
2023/11/26 13:45:15;;;;;;;42.28;25.58;;;;;;;;;;4972262;28;20536;-73
2023/11/26 13:47:41;;;;;;;31.40;19.65;;;;;;;;;;4971119;28;20066;-72
2023/11/26 13:50:07;;;;;;;44.42;27.15;;;;;;;;;;4954809;28;20051;-71
2023/11/26 13:52:33;;;;;;;35.80;20.88;;;;;;;;;;4970705;28;20066;-72
2023/11/26 13:54:59;;;;;;;50.00;30.30;;;;;;;;;;4938567;28;20623;-72
2023/11/26 13:57:26;;;;;;;45.10;27.10;;;;;;;;;;4971923;28;20053;-73
2023/11/26 13:59:55;;;;;;;38.55;22.75;;;;;;;;;;4972760;28;20051;-73
2023/11/26 14:02:21;;;;;;;43.50;26.77;;;;;;;;;;4972389;28;20043;-73
2023/11/26 14:04:47;;;;;;;40.45;25.92;;;;;;;;;;4935751;29;20071;-73
2023/11/26 14:07:13;;;;;;;48.40;31.15;;;;;;;;;;4969945;28;20138;-73
2023/11/26 14:09:39;;;;;;;37.20;23.58;;;;;;;;;;4972500;28;20053;-73
2023/11/26 14:12:06;;;;;;;29.05;19.33;;;;;;;;;;4955093;28;20114;-73
2023/11/26 14:14:32;;;;;;;33.05;17.40;;;;;;;;;;4972207;28;20559;-73
2023/11/26 14:16:58;;;;;;;31.50;21.27;;;;;;;;;;4954924;28;20154;-72
2023/11/26 14:19:24;;;;;;;39.35;26.90;;;;;;;;;;4971608;28;20484;-74
2023/11/26 14:21:50;;;;;;;32.47;20.13;;;;;;;;;;4955522;28;20035;-73